sensor_id;sensor_type;location;lat;lon;timestamp;temperature;humidity
65038;DHT22;51605;47.040;15.294;2022-09-25T00:01:30;23.00;53.70
65038;DHT22;51605;47.040;15.294;2022-09-25T00:03:56;23.00;53.70
65038;DHT22;51605;47.040;15.294;2022-09-25T00:06:24;23.00;53.60
65038;DHT22;51605;47.040;15.294;2022-09-25T00:08:50;23.00;53.70
65038;DHT22;51605;47.040;15.294;2022-09-25T00:11:21;23.00;53.80
65038;DHT22;51605;47.040;15.294;2022-09-25T00:13:48;23.00;53.70
65038;DHT22;51605;47.040;15.294;2022-09-25T00:16:17;23.00;53.70
65038;DHT22;51605;47.040;15.294;2022-09-25T00:18:43;23.00;53.80
65038;DHT22;51605;47.040;15.294;2022-09-25T00:21:28;23.00;53.60
65038;DHT22;51605;47.040;15.294;2022-09-25T00:24:02;23.00;53.70
65038;DHT22;51605;47.040;15.294;2022-09-25T00:26:31;23.00;53.80
65038;DHT22;51605;47.040;15.294;2022-09-25T00:28:57;23.00;53.70
65038;DHT22;51605;47.040;15.294;2022-09-25T00:31:26;23.00;53.70
65038;DHT22;51605;47.040;15.294;2022-09-25T00:33:56;23.00;53.70
65038;DHT22;51605;47.040;15.294;2022-09-25T00:36:21;23.00;53.70
65038;DHT22;51605;47.040;15.294;2022-09-25T00:38:48;23.00;53.80
65038;DHT22;51605;47.040;15.294;2022-09-25T00:41:18;23.00;53.70
65038;DHT22;51605;47.040;15.294;2022-09-25T00:43:47;23.00;53.70
65038;DHT22;51605;47.040;15.294;2022-09-25T00:49:16;23.00;53.80
65038;DHT22;51605;47.040;15.294;2022-09-25T00:52:02;23.00;53.80
65038;DHT22;51605;47.040;15.294;2022-09-25T00:54:53;23.00;53.70
65038;DHT22;51605;47.040;15.294;2022-09-25T00:57:22;23.00;53.80
65038;DHT22;51605;47.040;15.294;2022-09-25T00:59:54;23.00;53.70
65038;DHT22;51605;47.040;15.294;2022-09-25T01:02:29;23.00;53.70
65038;DHT22;51605;47.040;15.294;2022-09-25T01:04:58;23.00;53.70
65038;DHT22;51605;47.040;15.294;2022-09-25T01:07:24;23.00;53.70
65038;DHT22;51605;47.040;15.294;2022-09-25T01:09:50;23.00;53.80
65038;DHT22;51605;47.040;15.294;2022-09-25T01:12:16;23.00;53.70
65038;DHT22;51605;47.040;15.294;2022-09-25T01:14:42;23.00;53.70
65038;DHT22;51605;47.040;15.294;2022-09-25T01:17:28;23.00;53.70
65038;DHT22;51605;47.040;15.294;2022-09-25T01:23:24;23.00;53.70
65038;DHT22;51605;47.040;15.294;2022-09-25T01:31:23;23.00;53.80
65038;DHT22;51605;47.040;15.294;2022-09-25T01:33:59;23.00;53.70
65038;DHT22;51605;47.040;15.294;2022-09-25T01:36:29;23.00;53.80
65038;DHT22;51605;47.040;15.294;2022-09-25T01:39:44;23.00;53.80
65038;DHT22;51605;47.040;15.294;2022-09-25T01:42:10;23.00;54.70
65038;DHT22;51605;47.040;15.294;2022-09-25T01:44:54;23.00;53.80
65038;DHT22;51605;47.040;15.294;2022-09-25T01:47:28;23.00;53.80
65038;DHT22;51605;47.040;15.294;2022-09-25T01:50:10;23.00;53.70
65038;DHT22;51605;47.040;15.294;2022-09-25T01:52:40;23.00;53.70
65038;DHT22;51605;47.040;15.294;2022-09-25T01:55:14;23.00;53.70
65038;DHT22;51605;47.040;15.294;2022-09-25T01:57:55;23.00;53.70
65038;DHT22;51605;47.040;15.294;2022-09-25T02:00:24;23.00;53.80
65038;DHT22;51605;47.040;15.294;2022-09-25T02:02:56;23.00;53.80
65038;DHT22;51605;47.040;15.294;2022-09-25T02:05:29;23.00;53.70
65038;DHT22;51605;47.040;15.294;2022-09-25T02:08:21;23.00;53.60
65038;DHT22;51605;47.040;15.294;2022-09-25T02:10:54;23.00;53.70
65038;DHT22;51605;47.040;15.294;2022-09-25T02:13:21;23.00;53.80
65038;DHT22;51605;47.040;15.294;2022-09-25T02:15:49;23.00;53.70
65038;DHT22;51605;47.040;15.294;2022-09-25T02:18:17;23.00;53.70
65038;DHT22;51605;47.040;15.294;2022-09-25T02:21:26;23.00;53.80
65038;DHT22;51605;47.040;15.294;2022-09-25T02:26:29;23.00;53.70
65038;DHT22;51605;47.040;15.294;2022-09-25T02:28:56;23.00;53.80
65038;DHT22;51605;47.040;15.294;2022-09-25T02:31:27;23.00;53.70
65038;DHT22;51605;47.040;15.294;2022-09-25T02:33:56;23.00;53.70
65038;DHT22;51605;47.040;15.294;2022-09-25T02:36:22;23.00;53.70
65038;DHT22;51605;47.040;15.294;2022-09-25T02:38:49;23.00;53.70
65038;DHT22;51605;47.040;15.294;2022-09-25T02:49:53;23.00;53.70
65038;DHT22;51605;47.040;15.294;2022-09-25T02:53:03;23.00;53.70
65038;DHT22;51605;47.040;15.294;2022-09-25T02:55:43;23.00;53.70
65038;DHT22;51605;47.040;15.294;2022-09-25T03:00:39;23.00;53.60
65038;DHT22;51605;47.040;15.294;2022-09-25T03:03:08;23.00;53.60
65038;DHT22;51605;47.040;15.294;2022-09-25T03:05:36;23.00;53.70
65038;DHT22;51605;47.040;15.294;2022-09-25T03:08:03;23.00;53.70
65038;DHT22;51605;47.040;15.294;2022-09-25T03:10:47;23.00;53.70
65038;DHT22;51605;47.040;15.294;2022-09-25T03:13:22;23.00;53.70
65038;DHT22;51605;47.040;15.294;2022-09-25T03:15:55;23.00;53.60
65038;DHT22;51605;47.040;15.294;2022-09-25T03:18:25;23.00;53.60
65038;DHT22;51605;47.040;15.294;2022-09-25T03:20:53;23.00;53.60
65038;DHT22;51605;47.040;15.294;2022-09-25T03:23:18;23.00;53.60
65038;DHT22;51605;47.040;15.294;2022-09-25T03:25:44;23.00;53.70
65038;DHT22;51605;47.040;15.294;2022-09-25T03:28:11;23.00;53.60
65038;DHT22;51605;47.040;15.294;2022-09-25T03:30:37;23.00;53.60
65038;DHT22;51605;47.040;15.294;2022-09-25T03:33:06;23.00;53.60
65038;DHT22;51605;47.040;15.294;2022-09-25T03:35:31;23.00;53.60
65038;DHT22;51605;47.040;15.294;2022-09-25T03:37:57;23.00;53.70
65038;DHT22;51605;47.040;15.294;2022-09-25T03:40:23;23.00;53.60
65038;DHT22;51605;47.040;15.294;2022-09-25T03:42:49;23.00;53.50
65038;DHT22;51605;47.040;15.294;2022-09-25T03:45:14;23.00;53.50
65038;DHT22;51605;47.040;15.294;2022-09-25T03:47:40;23.00;53.50
65038;DHT22;51605;47.040;15.294;2022-09-25T03:50:06;23.00;53.50
65038;DHT22;51605;47.040;15.294;2022-09-25T03:52:33;23.00;53.50
65038;DHT22;51605;47.040;15.294;2022-09-25T03:54:59;23.00;53.50
65038;DHT22;51605;47.040;15.294;2022-09-25T03:57:24;23.00;53.50
65038;DHT22;51605;47.040;15.294;2022-09-25T03:59:51;23.00;53.50
65038;DHT22;51605;47.040;15.294;2022-09-25T04:02:16;23.00;53.50
65038;DHT22;51605;47.040;15.294;2022-09-25T04:04:42;23.00;53.60
65038;DHT22;51605;47.040;15.294;2022-09-25T04:07:09;23.10;53.50
65038;DHT22;51605;47.040;15.294;2022-09-25T04:09:35;23.00;53.50
65038;DHT22;51605;47.040;15.294;2022-09-25T04:12:01;23.10;53.50
65038;DHT22;51605;47.040;15.294;2022-09-25T04:14:26;23.00;53.50
65038;DHT22;51605;47.040;15.294;2022-09-25T04:16:52;23.00;53.60
65038;DHT22;51605;47.040;15.294;2022-09-25T04:19:17;23.00;53.60
65038;DHT22;51605;47.040;15.294;2022-09-25T04:21:43;23.00;53.60
65038;DHT22;51605;47.040;15.294;2022-09-25T04:24:09;23.00;53.60
65038;DHT22;51605;47.040;15.294;2022-09-25T04:26:54;23.00;53.60
65038;DHT22;51605;47.040;15.294;2022-09-25T04:29:19;23.00;53.50
65038;DHT22;51605;47.040;15.294;2022-09-25T04:31:48;23.00;53.50
65038;DHT22;51605;47.040;15.294;2022-09-25T04:34:34;23.00;53.70
65038;DHT22;51605;47.040;15.294;2022-09-25T04:37:00;23.00;53.60
65038;DHT22;51605;47.040;15.294;2022-09-25T04:39:26;23.00;53.70
65038;DHT22;51605;47.040;15.294;2022-09-25T04:41:51;23.00;53.60
65038;DHT22;51605;47.040;15.294;2022-09-25T04:44:17;23.00;53.70
65038;DHT22;51605;47.040;15.294;2022-09-25T04:46:43;23.00;53.70
65038;DHT22;51605;47.040;15.294;2022-09-25T04:49:08;23.00;53.80
65038;DHT22;51605;47.040;15.294;2022-09-25T04:51:34;23.00;53.70
65038;DHT22;51605;47.040;15.294;2022-09-25T04:54:00;22.90;53.70
65038;DHT22;51605;47.040;15.294;2022-09-25T04:56:25;23.00;53.80
65038;DHT22;51605;47.040;15.294;2022-09-25T04:58:51;23.00;53.70
65038;DHT22;51605;47.040;15.294;2022-09-25T05:01:18;23.00;53.70
65038;DHT22;51605;47.040;15.294;2022-09-25T05:03:49;23.00;53.70
65038;DHT22;51605;47.040;15.294;2022-09-25T05:06:18;22.90;54.20
65038;DHT22;51605;47.040;15.294;2022-09-25T05:08:46;22.90;53.80
65038;DHT22;51605;47.040;15.294;2022-09-25T05:11:11;22.90;53.90
65038;DHT22;51605;47.040;15.294;2022-09-25T05:13:37;23.00;53.90
65038;DHT22;51605;47.040;15.294;2022-09-25T05:16:03;23.00;53.80
65038;DHT22;51605;47.040;15.294;2022-09-25T05:18:29;23.00;53.70
65038;DHT22;51605;47.040;15.294;2022-09-25T05:20:54;23.00;53.70
65038;DHT22;51605;47.040;15.294;2022-09-25T05:23:21;23.00;53.70
65038;DHT22;51605;47.040;15.294;2022-09-25T05:25:52;23.00;53.60
65038;DHT22;51605;47.040;15.294;2022-09-25T05:28:19;23.00;53.60
65038;DHT22;51605;47.040;15.294;2022-09-25T05:30:45;23.00;53.60
65038;DHT22;51605;47.040;15.294;2022-09-25T05:33:11;22.90;53.60
65038;DHT22;51605;47.040;15.294;2022-09-25T05:35:36;22.90;53.50
65038;DHT22;51605;47.040;15.294;2022-09-25T05:38:02;22.90;53.50
65038;DHT22;51605;47.040;15.294;2022-09-25T05:40:27;22.90;53.60
65038;DHT22;51605;47.040;15.294;2022-09-25T05:42:53;22.90;53.50
65038;DHT22;51605;47.040;15.294;2022-09-25T05:45:20;22.90;53.30
65038;DHT22;51605;47.040;15.294;2022-09-25T05:47:47;22.90;53.30
65038;DHT22;51605;47.040;15.294;2022-09-25T05:50:15;22.90;53.30
65038;DHT22;51605;47.040;15.294;2022-09-25T05:52:41;22.90;53.30
65038;DHT22;51605;47.040;15.294;2022-09-25T05:55:07;22.90;53.30
65038;DHT22;51605;47.040;15.294;2022-09-25T05:57:34;22.90;53.50
65038;DHT22;51605;47.040;15.294;2022-09-25T06:00:06;22.90;53.40
65038;DHT22;51605;47.040;15.294;2022-09-25T06:02:33;22.90;53.40
65038;DHT22;51605;47.040;15.294;2022-09-25T06:04:59;22.90;53.50
65038;DHT22;51605;47.040;15.294;2022-09-25T06:07:25;23.00;53.50
65038;DHT22;51605;47.040;15.294;2022-09-25T06:09:50;22.90;53.70
65038;DHT22;51605;47.040;15.294;2022-09-25T06:12:16;22.90;53.80
65038;DHT22;51605;47.040;15.294;2022-09-25T06:14:42;22.90;53.80
65038;DHT22;51605;47.040;15.294;2022-09-25T06:17:08;23.00;53.90
65038;DHT22;51605;47.040;15.294;2022-09-25T06:19:36;23.00;53.90
65038;DHT22;51605;47.040;15.294;2022-09-25T06:22:01;23.00;53.80
65038;DHT22;51605;47.040;15.294;2022-09-25T06:24:27;23.00;53.90
65038;DHT22;51605;47.040;15.294;2022-09-25T06:26:53;23.00;53.70
65038;DHT22;51605;47.040;15.294;2022-09-25T06:29:18;23.00;53.70
65038;DHT22;51605;47.040;15.294;2022-09-25T06:31:44;23.00;53.70
65038;DHT22;51605;47.040;15.294;2022-09-25T06:34:10;23.00;53.70
65038;DHT22;51605;47.040;15.294;2022-09-25T06:36:37;23.00;53.70
65038;DHT22;51605;47.040;15.294;2022-09-25T06:39:02;23.00;53.70
65038;DHT22;51605;47.040;15.294;2022-09-25T06:41:28;23.00;53.60
65038;DHT22;51605;47.040;15.294;2022-09-25T06:43:54;23.00;53.60
65038;DHT22;51605;47.040;15.294;2022-09-25T06:46:19;22.90;53.50
65038;DHT22;51605;47.040;15.294;2022-09-25T06:48:52;23.00;53.60
65038;DHT22;51605;47.040;15.294;2022-09-25T06:51:19;22.90;53.50
65038;DHT22;51605;47.040;15.294;2022-09-25T06:53:45;22.90;53.60
65038;DHT22;51605;47.040;15.294;2022-09-25T06:56:11;23.00;54.00
65038;DHT22;51605;47.040;15.294;2022-09-25T06:58:37;22.90;54.00
65038;DHT22;51605;47.040;15.294;2022-09-25T07:01:03;22.90;53.90
65038;DHT22;51605;47.040;15.294;2022-09-25T07:03:32;22.90;53.90
65038;DHT22;51605;47.040;15.294;2022-09-25T07:06:14;22.90;53.90
65038;DHT22;51605;47.040;15.294;2022-09-25T07:08:40;22.90;54.10
65038;DHT22;51605;47.040;15.294;2022-09-25T07:11:11;22.90;54.00
65038;DHT22;51605;47.040;15.294;2022-09-25T07:13:38;23.00;54.00
65038;DHT22;51605;47.040;15.294;2022-09-25T07:16:07;22.90;53.90
65038;DHT22;51605;47.040;15.294;2022-09-25T07:18:34;23.00;54.00
65038;DHT22;51605;47.040;15.294;2022-09-25T07:21:02;23.00;54.20
65038;DHT22;51605;47.040;15.294;2022-09-25T07:23:28;23.00;54.20
65038;DHT22;51605;47.040;15.294;2022-09-25T07:25:56;23.00;54.10
65038;DHT22;51605;47.040;15.294;2022-09-25T07:28:22;22.90;54.10
65038;DHT22;51605;47.040;15.294;2022-09-25T07:30:47;23.00;54.10
65038;DHT22;51605;47.040;15.294;2022-09-25T07:33:14;23.00;54.00
65038;DHT22;51605;47.040;15.294;2022-09-25T07:35:40;23.00;54.20
65038;DHT22;51605;47.040;15.294;2022-09-25T07:38:06;23.00;54.20
65038;DHT22;51605;47.040;15.294;2022-09-25T07:40:31;23.00;54.20
65038;DHT22;51605;47.040;15.294;2022-09-25T07:43:03;23.00;54.30
65038;DHT22;51605;47.040;15.294;2022-09-25T07:45:29;23.00;54.30
65038;DHT22;51605;47.040;15.294;2022-09-25T07:47:56;23.00;54.40
65038;DHT22;51605;47.040;15.294;2022-09-25T07:50:22;23.00;54.40
65038;DHT22;51605;47.040;15.294;2022-09-25T07:52:48;23.00;54.30
65038;DHT22;51605;47.040;15.294;2022-09-25T07:55:14;23.00;54.20
65038;DHT22;51605;47.040;15.294;2022-09-25T07:57:40;23.00;54.20
65038;DHT22;51605;47.040;15.294;2022-09-25T08:00:08;23.00;54.20
65038;DHT22;51605;47.040;15.294;2022-09-25T08:02:34;23.00;54.20
65038;DHT22;51605;47.040;15.294;2022-09-25T08:05:00;23.00;54.30
65038;DHT22;51605;47.040;15.294;2022-09-25T08:07:27;23.00;54.20
65038;DHT22;51605;47.040;15.294;2022-09-25T08:09:53;23.00;54.10
65038;DHT22;51605;47.040;15.294;2022-09-25T08:12:22;23.00;54.30
65038;DHT22;51605;47.040;15.294;2022-09-25T08:14:51;23.00;54.20
65038;DHT22;51605;47.040;15.294;2022-09-25T08:17:17;22.90;54.20
65038;DHT22;51605;47.040;15.294;2022-09-25T08:19:46;22.90;54.20
65038;DHT22;51605;47.040;15.294;2022-09-25T08:22:12;23.00;54.20
65038;DHT22;51605;47.040;15.294;2022-09-25T08:24:38;23.00;54.10
65038;DHT22;51605;47.040;15.294;2022-09-25T08:27:04;23.00;54.10
65038;DHT22;51605;47.040;15.294;2022-09-25T08:29:30;23.00;54.10
65038;DHT22;51605;47.040;15.294;2022-09-25T08:31:56;23.00;54.00
65038;DHT22;51605;47.040;15.294;2022-09-25T08:34:22;23.00;54.10
65038;DHT22;51605;47.040;15.294;2022-09-25T08:36:48;23.00;54.20
65038;DHT22;51605;47.040;15.294;2022-09-25T08:39:15;23.00;54.10
65038;DHT22;51605;47.040;15.294;2022-09-25T08:41:47;23.00;54.10
65038;DHT22;51605;47.040;15.294;2022-09-25T08:44:25;23.00;54.00
65038;DHT22;51605;47.040;15.294;2022-09-25T08:47:16;23.00;54.10
65038;DHT22;51605;47.040;15.294;2022-09-25T08:50:15;23.00;54.30
65038;DHT22;51605;47.040;15.294;2022-09-25T08:52:48;23.00;54.20
65038;DHT22;51605;47.040;15.294;2022-09-25T08:55:33;23.00;54.20
65038;DHT22;51605;47.040;15.294;2022-09-25T08:58:26;23.00;54.40
65038;DHT22;51605;47.040;15.294;2022-09-25T09:00:57;23.00;54.30
65038;DHT22;51605;47.040;15.294;2022-09-25T09:03:25;23.00;54.40
65038;DHT22;51605;47.040;15.294;2022-09-25T09:06:03;23.00;54.40
65038;DHT22;51605;47.040;15.294;2022-09-25T09:08:33;22.90;54.30
65038;DHT22;51605;47.040;15.294;2022-09-25T09:13:56;22.90;54.30
65038;DHT22;51605;47.040;15.294;2022-09-25T09:16:58;22.90;54.60
65038;DHT22;51605;47.040;15.294;2022-09-25T09:19:24;23.00;54.60
65038;DHT22;51605;47.040;15.294;2022-09-25T09:22:09;23.00;54.40
65038;DHT22;51605;47.040;15.294;2022-09-25T09:24:55;23.00;54.50
65038;DHT22;51605;47.040;15.294;2022-09-25T09:30:50;23.00;54.50
65038;DHT22;51605;47.040;15.294;2022-09-25T09:33:45;23.00;54.40
65038;DHT22;51605;47.040;15.294;2022-09-25T09:47:45;22.90;54.40
65038;DHT22;51605;47.040;15.294;2022-09-25T09:52:44;23.00;54.40
65038;DHT22;51605;47.040;15.294;2022-09-25T09:55:34;23.00;54.40
65038;DHT22;51605;47.040;15.294;2022-09-25T09:58:12;22.90;54.30
65038;DHT22;51605;47.040;15.294;2022-09-25T10:00:42;23.00;54.40
65038;DHT22;51605;47.040;15.294;2022-09-25T10:03:17;23.00;54.40
65038;DHT22;51605;47.040;15.294;2022-09-25T10:05:49;23.00;54.40
65038;DHT22;51605;47.040;15.294;2022-09-25T10:08:17;23.00;54.30
65038;DHT22;51605;47.040;15.294;2022-09-25T10:10:51;23.00;54.30
65038;DHT22;51605;47.040;15.294;2022-09-25T10:13:22;23.00;54.30
65038;DHT22;51605;47.040;15.294;2022-09-25T10:15:52;23.00;54.20
65038;DHT22;51605;47.040;15.294;2022-09-25T10:18:20;23.00;54.30
65038;DHT22;51605;47.040;15.294;2022-09-25T10:21:12;23.00;54.30
65038;DHT22;51605;47.040;15.294;2022-09-25T10:23:39;23.00;54.30
65038;DHT22;51605;47.040;15.294;2022-09-25T10:28:54;23.00;54.40
65038;DHT22;51605;47.040;15.294;2022-09-25T10:31:35;23.00;54.30
65038;DHT22;51605;47.040;15.294;2022-09-25T10:36:43;23.00;54.40
65038;DHT22;51605;47.040;15.294;2022-09-25T10:39:42;23.00;54.40
65038;DHT22;51605;47.040;15.294;2022-09-25T10:42:46;23.00;54.40
65038;DHT22;51605;47.040;15.294;2022-09-25T10:45:32;23.00;54.40
65038;DHT22;51605;47.040;15.294;2022-09-25T10:47:58;23.00;54.40
65038;DHT22;51605;47.040;15.294;2022-09-25T10:51:09;23.00;54.30
65038;DHT22;51605;47.040;15.294;2022-09-25T10:53:35;23.00;54.30
65038;DHT22;51605;47.040;15.294;2022-09-25T10:56:07;23.00;54.30
65038;DHT22;51605;47.040;15.294;2022-09-25T10:58:44;23.00;54.30
65038;DHT22;51605;47.040;15.294;2022-09-25T11:01:12;23.00;54.30
65038;DHT22;51605;47.040;15.294;2022-09-25T11:09:05;23.00;54.60
65038;DHT22;51605;47.040;15.294;2022-09-25T11:11:34;23.00;54.90
65038;DHT22;51605;47.040;15.294;2022-09-25T11:14:04;23.00;55.10
65038;DHT22;51605;47.040;15.294;2022-09-25T11:16:46;23.10;55.30
65038;DHT22;51605;47.040;15.294;2022-09-25T11:19:28;23.20;55.70
65038;DHT22;51605;47.040;15.294;2022-09-25T11:25:13;23.30;55.80
65038;DHT22;51605;47.040;15.294;2022-09-25T11:27:53;23.40;55.80
65038;DHT22;51605;47.040;15.294;2022-09-25T11:30:21;23.50;55.70
65038;DHT22;51605;47.040;15.294;2022-09-25T11:33:05;23.50;55.70
65038;DHT22;51605;47.040;15.294;2022-09-25T11:38:32;23.70;55.60
65038;DHT22;51605;47.040;15.294;2022-09-25T11:47:11;23.90;55.20
65038;DHT22;51605;47.040;15.294;2022-09-25T11:49:41;23.90;55.20
65038;DHT22;51605;47.040;15.294;2022-09-25T11:55:51;24.00;55.10
65038;DHT22;51605;47.040;15.294;2022-09-25T11:58:42;24.10;54.90
65038;DHT22;51605;47.040;15.294;2022-09-25T12:06:57;24.10;54.70
65038;DHT22;51605;47.040;15.294;2022-09-25T12:12:32;24.10;54.60
65038;DHT22;51605;47.040;15.294;2022-09-25T12:23:23;24.00;54.80
65038;DHT22;51605;47.040;15.294;2022-09-25T12:28:31;23.80;54.80
65038;DHT22;51605;47.040;15.294;2022-09-25T12:39:41;23.60;55.00
65038;DHT22;51605;47.040;15.294;2022-09-25T12:42:13;23.60;55.10
65038;DHT22;51605;47.040;15.294;2022-09-25T12:47:33;23.60;55.10
65038;DHT22;51605;47.040;15.294;2022-09-25T12:50:12;23.50;55.30
65038;DHT22;51605;47.040;15.294;2022-09-25T12:52:52;23.50;55.20
65038;DHT22;51605;47.040;15.294;2022-09-25T12:55:20;23.50;55.70
65038;DHT22;51605;47.040;15.294;2022-09-25T12:57:53;23.50;55.80
65038;DHT22;51605;47.040;15.294;2022-09-25T13:00:22;23.50;56.00
65038;DHT22;51605;47.040;15.294;2022-09-25T13:03:03;23.60;56.10
65038;DHT22;51605;47.040;15.294;2022-09-25T13:05:34;23.60;56.30
65038;DHT22;51605;47.040;15.294;2022-09-25T13:10:43;23.80;56.20
65038;DHT22;51605;47.040;15.294;2022-09-25T13:13:18;23.90;56.00
65038;DHT22;51605;47.040;15.294;2022-09-25T13:15:48;24.00;55.90
65038;DHT22;51605;47.040;15.294;2022-09-25T13:18:26;24.00;55.70
65038;DHT22;51605;47.040;15.294;2022-09-25T13:20:54;24.10;55.70
65038;DHT22;51605;47.040;15.294;2022-09-25T13:23:25;24.20;55.60
65038;DHT22;51605;47.040;15.294;2022-09-25T13:25:54;24.20;55.60
65038;DHT22;51605;47.040;15.294;2022-09-25T13:28:37;24.20;55.40
65038;DHT22;51605;47.040;15.294;2022-09-25T13:31:12;24.30;55.10
65038;DHT22;51605;47.040;15.294;2022-09-25T13:33:52;24.30;55.10
65038;DHT22;51605;47.040;15.294;2022-09-25T13:42:04;24.20;55.80
65038;DHT22;51605;47.040;15.294;2022-09-25T13:47:31;24.10;55.30
65038;DHT22;51605;47.040;15.294;2022-09-25T13:55:27;24.00;55.40
65038;DHT22;51605;47.040;15.294;2022-09-25T14:00:23;23.90;55.40
65038;DHT22;51605;47.040;15.294;2022-09-25T14:02:52;23.90;55.50
65038;DHT22;51605;47.040;15.294;2022-09-25T14:05:26;23.80;55.50
65038;DHT22;51605;47.040;15.294;2022-09-25T14:08:01;23.80;55.60
65038;DHT22;51605;47.040;15.294;2022-09-25T14:10:28;23.80;55.70
65038;DHT22;51605;47.040;15.294;2022-09-25T14:12:54;23.80;55.70
65038;DHT22;51605;47.040;15.294;2022-09-25T14:17:53;23.70;55.80
65038;DHT22;51605;47.040;15.294;2022-09-25T14:20:38;23.70;55.70
65038;DHT22;51605;47.040;15.294;2022-09-25T14:25:36;23.60;55.80
65038;DHT22;51605;47.040;15.294;2022-09-25T14:36:38;23.50;55.90
65038;DHT22;51605;47.040;15.294;2022-09-25T14:39:36;23.50;55.90
65038;DHT22;51605;47.040;15.294;2022-09-25T14:45:11;23.50;55.90
65038;DHT22;51605;47.040;15.294;2022-09-25T14:47:41;23.50;56.00
65038;DHT22;51605;47.040;15.294;2022-09-25T14:50:22;23.50;55.90
65038;DHT22;51605;47.040;15.294;2022-09-25T14:52:54;23.40;56.00
65038;DHT22;51605;47.040;15.294;2022-09-25T14:55:23;23.40;56.00
65038;DHT22;51605;47.040;15.294;2022-09-25T14:57:51;23.40;56.00
65038;DHT22;51605;47.040;15.294;2022-09-25T15:00:19;23.40;56.00
65038;DHT22;51605;47.040;15.294;2022-09-25T15:02:51;23.40;56.00
65038;DHT22;51605;47.040;15.294;2022-09-25T15:07:50;23.40;56.00
65038;DHT22;51605;47.040;15.294;2022-09-25T15:10:29;23.40;56.00
65038;DHT22;51605;47.040;15.294;2022-09-25T15:15:48;23.40;56.00
65038;DHT22;51605;47.040;15.294;2022-09-25T15:18:42;23.30;55.90
65038;DHT22;51605;47.040;15.294;2022-09-25T15:21:13;23.30;56.00
65038;DHT22;51605;47.040;15.294;2022-09-25T15:23:41;23.30;56.00
65038;DHT22;51605;47.040;15.294;2022-09-25T15:26:14;23.30;56.00
65038;DHT22;51605;47.040;15.294;2022-09-25T15:28:42;23.30;56.00
65038;DHT22;51605;47.040;15.294;2022-09-25T15:31:08;23.30;56.00
65038;DHT22;51605;47.040;15.294;2022-09-25T15:33:35;23.30;56.00
65038;DHT22;51605;47.040;15.294;2022-09-25T15:36:16;23.30;56.10
65038;DHT22;51605;47.040;15.294;2022-09-25T15:38:55;23.30;56.00
65038;DHT22;51605;47.040;15.294;2022-09-25T15:41:22;23.30;56.10
65038;DHT22;51605;47.040;15.294;2022-09-25T15:43:50;23.30;56.00
65038;DHT22;51605;47.040;15.294;2022-09-25T15:46:29;23.20;55.90
65038;DHT22;51605;47.040;15.294;2022-09-25T15:48:57;23.20;56.00
65038;DHT22;51605;47.040;15.294;2022-09-25T15:51:28;23.20;55.90
65038;DHT22;51605;47.040;15.294;2022-09-25T15:53:59;23.20;55.90
65038;DHT22;51605;47.040;15.294;2022-09-25T15:56:45;23.20;55.90
65038;DHT22;51605;47.040;15.294;2022-09-25T15:59:22;23.30;56.10
65038;DHT22;51605;47.040;15.294;2022-09-25T16:01:49;23.20;56.00
65038;DHT22;51605;47.040;15.294;2022-09-25T16:04:34;23.20;55.90
65038;DHT22;51605;47.040;15.294;2022-09-25T16:09:53;23.20;55.90
65038;DHT22;51605;47.040;15.294;2022-09-25T16:18:00;23.20;56.00
65038;DHT22;51605;47.040;15.294;2022-09-25T16:20:33;23.20;56.00
65038;DHT22;51605;47.040;15.294;2022-09-25T16:23:03;23.20;56.00
65038;DHT22;51605;47.040;15.294;2022-09-25T16:28:19;23.20;56.00
65038;DHT22;51605;47.040;15.294;2022-09-25T16:30:49;23.20;56.40
65038;DHT22;51605;47.040;15.294;2022-09-25T16:35:49;23.20;56.30
65038;DHT22;51605;47.040;15.294;2022-09-25T16:38:32;23.20;56.20
65038;DHT22;51605;47.040;15.294;2022-09-25T16:41:19;23.20;56.20
65038;DHT22;51605;47.040;15.294;2022-09-25T16:47:02;23.20;56.00
65038;DHT22;51605;47.040;15.294;2022-09-25T16:49:31;23.20;56.00
65038;DHT22;51605;47.040;15.294;2022-09-25T16:51:58;23.20;56.10
65038;DHT22;51605;47.040;15.294;2022-09-25T16:54:27;23.20;56.10
65038;DHT22;51605;47.040;15.294;2022-09-25T16:56:55;23.20;56.20
65038;DHT22;51605;47.040;15.294;2022-09-25T16:59:24;23.10;56.10
65038;DHT22;51605;47.040;15.294;2022-09-25T17:02:06;23.20;56.20
65038;DHT22;51605;47.040;15.294;2022-09-25T17:04:35;23.10;56.20
65038;DHT22;51605;47.040;15.294;2022-09-25T17:07:03;23.20;56.20
65038;DHT22;51605;47.040;15.294;2022-09-25T17:09:28;23.20;56.20
65038;DHT22;51605;47.040;15.294;2022-09-25T17:12:02;23.20;56.20
65038;DHT22;51605;47.040;15.294;2022-09-25T17:14:31;23.20;56.30
65038;DHT22;51605;47.040;15.294;2022-09-25T17:16:57;23.10;56.30
65038;DHT22;51605;47.040;15.294;2022-09-25T17:19:23;23.10;56.20
65038;DHT22;51605;47.040;15.294;2022-09-25T17:21:50;23.10;56.30
65038;DHT22;51605;47.040;15.294;2022-09-25T17:24:18;23.10;56.20
65038;DHT22;51605;47.040;15.294;2022-09-25T17:26:44;23.10;56.20
65038;DHT22;51605;47.040;15.294;2022-09-25T17:29:11;23.10;56.20
65038;DHT22;51605;47.040;15.294;2022-09-25T17:31:38;23.20;56.20
65038;DHT22;51605;47.040;15.294;2022-09-25T17:34:24;23.20;56.20
65038;DHT22;51605;47.040;15.294;2022-09-25T17:36:52;23.20;56.30
65038;DHT22;51605;47.040;15.294;2022-09-25T17:39:19;23.20;56.20
65038;DHT22;51605;47.040;15.294;2022-09-25T17:41:44;23.20;56.20
65038;DHT22;51605;47.040;15.294;2022-09-25T17:44:14;23.20;56.10
65038;DHT22;51605;47.040;15.294;2022-09-25T17:46:41;23.20;56.10
65038;DHT22;51605;47.040;15.294;2022-09-25T17:49:07;23.20;56.10
65038;DHT22;51605;47.040;15.294;2022-09-25T17:51:33;23.20;56.10
65038;DHT22;51605;47.040;15.294;2022-09-25T17:53:59;23.20;56.10
65038;DHT22;51605;47.040;15.294;2022-09-25T17:56:27;23.10;56.10
65038;DHT22;51605;47.040;15.294;2022-09-25T17:58:54;23.20;56.60
65038;DHT22;51605;47.040;15.294;2022-09-25T18:01:25;23.20;56.80
65038;DHT22;51605;47.040;15.294;2022-09-25T18:03:53;23.20;56.80
65038;DHT22;51605;47.040;15.294;2022-09-25T18:06:19;23.20;56.80
65038;DHT22;51605;47.040;15.294;2022-09-25T18:08:46;23.30;56.90
65038;DHT22;51605;47.040;15.294;2022-09-25T18:11:13;23.30;56.70
65038;DHT22;51605;47.040;15.294;2022-09-25T18:13:39;23.40;56.70
65038;DHT22;51605;47.040;15.294;2022-09-25T18:16:06;23.50;56.60
65038;DHT22;51605;47.040;15.294;2022-09-25T18:18:36;23.60;56.60
65038;DHT22;51605;47.040;15.294;2022-09-25T18:21:20;23.60;56.30